AirNav   Textron
 
 1121 users online  

L88 New Cuyama Airport
New Cuyama, California, USA


FAA INFORMATION EFFECTIVE 09 NOVEMBER 2017

Location

FAA Identifier: L88
Lat/Long: 34-56-23.8000N / 119-41-08.1000W
34-56.396667N / 119-41.135000W
34.9399444 / -119.6855833
(estimated)
Elevation: 2203 ft. / 671 m (estimated)
Variation: 14E (1985)
Time zone: UTC -8 (UTC -7 during Daylight Saving Time)
Zip code: 93254

Airport Operations

Airport use: Open to the public
Activation date: 09/1950
Control tower: no
ARTCC: LOS ANGELES CENTER
FSS: RANCHO MURIETA FLIGHT SERVICE STATION
NOTAMs facility: RIU (NOTAM-D service available)
Attendance: UNATNDD
Pattern altitude: 3203 ft. MSL
Wind indicator: yes
Segmented circle: yes

Airport Communications

CTAF: 122.9

Nearby radio navigation aids

VOR radial/distance  VOR name  Freq  Var
FLWr120/12.8FELLOWS VOR/DME117.5016E
RZSr355/26.2SAN MARCUS VORTAC114.9014E
GVOr023/31.6GAVIOTA VORTAC113.8016E

Airport Services

Parking: tiedowns
Airframe service: NONE
Powerplant service: NONE
Bottled oxygen: NONE
Bulk oxygen: NONE

Runway Information

Runway 10/28

Dimensions: 3940 x 60 ft. / 1201 x 18 m
Surface: asphalt, in poor condition
RUNWAY 10  RUNWAY 28
Latitude: 34-56.541333N34-56.251667N
Longitude: 119-41.488833W119-40.782667W
Traffic pattern: rightleft
Markings: basic, in fair conditionbasic, in fair condition
Runway end identifier lights: nono
Obstructions: 20 ft. tree, 250 ft. from runway, 2:1 slope to clear4 ft. fence, 200 ft. from runway, 80 ft. left of centerline

Airport Ownership and Management from official FAA records

Ownership: Privately-owned
Owner: ZANNON FAMILY FOUNDATION
P.O. BOX 21957
SANTA BARBARA, CA 93121
Phone 805-962-5200
EUGENE F. ZANNON, TRUSTEE
Manager: HARRY CURTIS
PO BOX 359
NEW CUYAMA, CA 93254
Phone 805-440-5022

Airport Operational Statistics

Aircraft operations: avg 42/month *
100% transient general aviation
* for 12-month period ending 30 May 2017

Additional Remarks

ACFT PRKG 125 FT N OF RWY CNTRLN AT RWY 10 APCH END.
RWY 10 +25 FT PWR POLES & PLINES RUN PARTIALLY UNDERGROUND 270 FT BYD RWY END, 164 FT R OF CNTRLN.

Instrument Procedures

There are no published instrument procedures at L88.

Some nearby airports with instrument procedures:

KIZA - Santa Ynez Airport (28 nm SW)
KSBA - Santa Barbara Municipal Airport (32 nm S)
KSMX - Santa Maria Public Airport/Capt G Allan Hancock Field (38 nm W)
L45 - Bakersfield Municipal Airport (41 nm NE)
KMIT - Shafter Airport-Minter Field (42 nm NE)
 
Loc | Ops | Rwys | IFR | FBO | Links
Com | Nav | Svcs | Stats | Notes


 
Area around L88 (New Cuyama Airport)
 
Road maps at: MapQuest Bing Google
 
Aerial photo
WARNING: Photo may not be current or correct
Aerial photo of L88 (New Cuyama Airport)
Photo taken 03-Mar-2016
looking west.

Do you have a better or more recent aerial photo of New Cuyama Airport that you would like to share? If so, please send us your photo.

 
Sectional chart

 
Airport distance calculator
Flying to New Cuyama Airport? Find the distance to fly.

From to L88

Sunrise and sunset
Times for 21-Nov-2017
 Local
(UTC-8)
 Zulu
(UTC)
Morning civil twilight06:1314:13
Sunrise06:4014:40
Sunset16:4900:49
Evening civil twilight17:1701:17

Current date and time
Zulu (UTC)  21-Nov-2017 23:11:32
Local (UTC-8)  21-Nov-2017 15:11:32
 
METAR
KSBA 
31nm S 
212253Z 21004KT 10SM CLR 26/06 A3000 RMK AO2 SLP158 T02610056
KSMX 
38nm W 
212251Z 33010KT 10SM CLR 29/12 A3002 RMK AO2 SLP165 T02890117
KLPC 
42nm SW 
212256Z AUTO 28010KT 10SM CLR 26/09 A3001 RMK AO2 SLP164 T02610094
KBFL 
43nm NE 
212254Z 00000KT 8SM CLR 23/04 A3011 RMK AO2 SLP191 T02330039
2CN4 
45nm N 
SuperAWOS
212155Z AUTO 00000KT 10SM 21/05 A3016
KVBG 
47nm SW 
212255Z 29006KT 10SM BKN250 BKN300 25/07 A3011 RMK AO2A SLP169 T02530067
KSDB 
49nm E 
212253Z AUTO 06012KT 10SM CLR 23/M09 A3028 RMK AO2 SLP207 T02281089 $
KSBP 
50nm W 
212256Z 27005KT 10SM CLR 31/08 A3000 RMK AO2 SLP155 T03110083
TAF
KSBA 
31nm S 
211720Z 2118/2218 19005KT P6SM BKN250 FM212000 23008KT P6SM BKN250 FM220200 VRB03KT P6SM SKC
KSMX 
38nm W 
211720Z 2118/2218 VRB03KT P6SM BKN250 FM211900 31010KT P6SM SCT250 FM220300 VRB03KT P6SM SKC
NOTAMs
Click for the latest NOTAMs
NOTAMs are issued by the DoD/FAA and will open in a separate window not controlled by AirNav.

 

 
 

Would you like to see your business listed on this page?

 If your business provides an interesting product or service to pilots, flight crews, aircraft, or users of the New Cuyama Airport, you should consider listing it here.  To start the listing process, click on the button below
 
Add a business
 

Other Pages about New Cuyama Airport

Update a link
 
Copyright © AirNav, LLC. All rights reserved. Privacy Policy  Contact